sensor_id;sensor_type;location;lat;lon;timestamp;P1;durP1;ratioP1;P2;durP2;ratioP2
8361;SDS011;4218;48.326;14.304;2023-07-20T00:00:57;120.27;;;114.53;;
8361;SDS011;4218;48.326;14.304;2023-07-20T00:03:22;186.07;;;177.00;;
8361;SDS011;4218;48.326;14.304;2023-07-20T00:05:50;143.03;;;135.97;;
8361;SDS011;4218;48.326;14.304;2023-07-20T00:08:16;156.13;;;148.63;;
8361;SDS011;4218;48.326;14.304;2023-07-20T00:10:42;143.03;;;136.17;;
8361;SDS011;4218;48.326;14.304;2023-07-20T00:13:07;126.10;;;120.13;;
8361;SDS011;4218;48.326;14.304;2023-07-20T00:15:32;144.27;;;137.30;;
8361;SDS011;4218;48.326;14.304;2023-07-20T00:17:59;148.43;;;141.50;;
8361;SDS011;4218;48.326;14.304;2023-07-20T00:20:26;151.03;;;143.50;;
8361;SDS011;4218;48.326;14.304;2023-07-20T00:22:51;157.37;;;149.30;;
8361;SDS011;4218;48.326;14.304;2023-07-20T00:25:17;130.10;;;123.70;;
8361;SDS011;4218;48.326;14.304;2023-07-20T00:27:42;160.57;;;152.53;;
8361;SDS011;4218;48.326;14.304;2023-07-20T00:30:07;124.17;;;118.17;;
8361;SDS011;4218;48.326;14.304;2023-07-20T00:32:33;113.77;;;108.43;;
8361;SDS011;4218;48.326;14.304;2023-07-20T00:34:58;95.77;;;91.27;;
8361;SDS011;4218;48.326;14.304;2023-07-20T00:37:23;84.67;;;80.70;;
8361;SDS011;4218;48.326;14.304;2023-07-20T00:39:49;74.47;;;70.90;;
8361;SDS011;4218;48.326;14.304;2023-07-20T00:42:14;102.73;;;97.40;;
8361;SDS011;4218;48.326;14.304;2023-07-20T00:44:39;141.20;;;134.30;;
8361;SDS011;4218;48.326;14.304;2023-07-20T00:47:05;117.90;;;112.40;;
8361;SDS011;4218;48.326;14.304;2023-07-20T00:49:30;76.03;;;72.40;;
8361;SDS011;4218;48.326;14.304;2023-07-20T00:51:56;133.33;;;126.70;;
8361;SDS011;4218;48.326;14.304;2023-07-20T00:54:21;110.70;;;105.00;;
8361;SDS011;4218;48.326;14.304;2023-07-20T00:56:47;83.63;;;79.57;;
8361;SDS011;4218;48.326;14.304;2023-07-20T00:59:15;86.63;;;82.37;;
8361;SDS011;4218;48.326;14.304;2023-07-20T01:01:40;103.17;;;98.13;;
8361;SDS011;4218;48.326;14.304;2023-07-20T01:04:06;105.93;;;100.87;;
8361;SDS011;4218;48.326;14.304;2023-07-20T01:09:24;108.13;;;102.83;;
8361;SDS011;4218;48.326;14.304;2023-07-20T01:14:16;88.07;;;83.80;;
8361;SDS011;4218;48.326;14.304;2023-07-20T01:16:42;86.63;;;82.50;;
8361;SDS011;4218;48.326;14.304;2023-07-20T01:19:07;90.70;;;86.50;;
8361;SDS011;4218;48.326;14.304;2023-07-20T01:21:45;103.60;;;98.63;;
8361;SDS011;4218;48.326;14.304;2023-07-20T01:31:54;148.80;;;141.60;;
8361;SDS011;4218;48.326;14.304;2023-07-20T01:34:20;178.00;;;169.30;;
8361;SDS011;4218;48.326;14.304;2023-07-20T01:36:47;154.80;;;147.27;;
8361;SDS011;4218;48.326;14.304;2023-07-20T01:39:13;136.90;;;130.37;;
8361;SDS011;4218;48.326;14.304;2023-07-20T01:41:39;151.57;;;144.30;;
8361;SDS011;4218;48.326;14.304;2023-07-20T01:44:05;181.53;;;172.57;;
8361;SDS011;4218;48.326;14.304;2023-07-20T01:46:30;130.87;;;124.67;;
8361;SDS011;4218;48.326;14.304;2023-07-20T01:48:55;124.27;;;118.20;;
8361;SDS011;4218;48.326;14.304;2023-07-20T01:51:20;174.17;;;165.67;;
8361;SDS011;4218;48.326;14.304;2023-07-20T01:53:46;141.60;;;134.83;;
8361;SDS011;4218;48.326;14.304;2023-07-20T01:56:11;134.70;;;128.07;;
8361;SDS011;4218;48.326;14.304;2023-07-20T01:58:37;137.73;;;131.17;;
8361;SDS011;4218;48.326;14.304;2023-07-20T02:01:02;146.70;;;139.63;;
8361;SDS011;4218;48.326;14.304;2023-07-20T02:03:27;183.80;;;175.20;;
8361;SDS011;4218;48.326;14.304;2023-07-20T02:05:53;174.80;;;166.53;;
8361;SDS011;4218;48.326;14.304;2023-07-20T02:08:18;130.00;;;123.63;;
8361;SDS011;4218;48.326;14.304;2023-07-20T02:10:47;123.67;;;117.77;;
8361;SDS011;4218;48.326;14.304;2023-07-20T02:13:13;149.33;;;141.93;;
8361;SDS011;4218;48.326;14.304;2023-07-20T02:15:38;146.40;;;139.47;;
8361;SDS011;4218;48.326;14.304;2023-07-20T02:18:04;118.13;;;112.47;;
8361;SDS011;4218;48.326;14.304;2023-07-20T02:20:29;135.13;;;128.83;;
8361;SDS011;4218;48.326;14.304;2023-07-20T02:22:54;130.57;;;124.33;;
8361;SDS011;4218;48.326;14.304;2023-07-20T02:25:20;135.50;;;128.90;;
8361;SDS011;4218;48.326;14.304;2023-07-20T02:27:46;160.23;;;152.27;;
8361;SDS011;4218;48.326;14.304;2023-07-20T02:30:11;178.90;;;170.27;;
8361;SDS011;4218;48.326;14.304;2023-07-20T02:32:36;190.57;;;181.33;;
8361;SDS011;4218;48.326;14.304;2023-07-20T02:35:02;193.57;;;184.57;;
8361;SDS011;4218;48.326;14.304;2023-07-20T02:37:28;128.57;;;122.43;;
8361;SDS011;4218;48.326;14.304;2023-07-20T02:39:53;127.37;;;121.23;;
8361;SDS011;4218;48.326;14.304;2023-07-20T02:42:19;85.37;;;81.17;;
8361;SDS011;4218;48.326;14.304;2023-07-20T02:44:44;72.93;;;69.53;;
8361;SDS011;4218;48.326;14.304;2023-07-20T02:47:09;48.13;;;45.97;;
8361;SDS011;4218;48.326;14.304;2023-07-20T02:49:35;50.13;;;47.77;;
8361;SDS011;4218;48.326;14.304;2023-07-20T02:52:00;46.93;;;44.73;;
8361;SDS011;4218;48.326;14.304;2023-07-20T02:54:25;45.10;;;42.77;;
8361;SDS011;4218;48.326;14.304;2023-07-20T02:56:50;39.80;;;37.90;;
8361;SDS011;4218;48.326;14.304;2023-07-20T02:59:16;36.00;;;34.33;;
8361;SDS011;4218;48.326;14.304;2023-07-20T03:01:42;47.83;;;45.53;;
8361;SDS011;4218;48.326;14.304;2023-07-20T03:04:07;44.43;;;42.33;;
8361;SDS011;4218;48.326;14.304;2023-07-20T03:06:35;63.93;;;61.00;;
8361;SDS011;4218;48.326;14.304;2023-07-20T03:09:01;64.70;;;61.70;;
8361;SDS011;4218;48.326;14.304;2023-07-20T03:11:26;67.43;;;64.33;;
8361;SDS011;4218;48.326;14.304;2023-07-20T03:13:51;60.13;;;57.37;;
8361;SDS011;4218;48.326;14.304;2023-07-20T03:16:17;55.50;;;53.00;;
8361;SDS011;4218;48.326;14.304;2023-07-20T03:18:43;58.53;;;55.73;;
8361;SDS011;4218;48.326;14.304;2023-07-20T03:21:08;59.63;;;56.83;;
8361;SDS011;4218;48.326;14.304;2023-07-20T03:23:36;51.87;;;49.47;;
8361;SDS011;4218;48.326;14.304;2023-07-20T03:26:01;62.77;;;59.87;;
8361;SDS011;4218;48.326;14.304;2023-07-20T03:28:27;38.00;;;36.10;;
8361;SDS011;4218;48.326;14.304;2023-07-20T03:30:52;39.47;;;37.37;;
8361;SDS011;4218;48.326;14.304;2023-07-20T03:33:18;55.90;;;53.27;;
8361;SDS011;4218;48.326;14.304;2023-07-20T03:35:43;52.03;;;49.60;;
8361;SDS011;4218;48.326;14.304;2023-07-20T03:38:08;37.83;;;35.93;;
8361;SDS011;4218;48.326;14.304;2023-07-20T03:40:33;35.70;;;33.97;;
8361;SDS011;4218;48.326;14.304;2023-07-20T03:42:59;42.40;;;40.40;;
8361;SDS011;4218;48.326;14.304;2023-07-20T03:45:24;44.63;;;42.60;;
8361;SDS011;4218;48.326;14.304;2023-07-20T03:47:49;63.20;;;60.20;;
8361;SDS011;4218;48.326;14.304;2023-07-20T03:50:14;83.03;;;79.17;;
8361;SDS011;4218;48.326;14.304;2023-07-20T03:52:40;53.67;;;51.20;;
8361;SDS011;4218;48.326;14.304;2023-07-20T03:55:05;59.57;;;56.77;;
8361;SDS011;4218;48.326;14.304;2023-07-20T03:57:31;46.67;;;44.47;;
8361;SDS011;4218;48.326;14.304;2023-07-20T03:59:57;41.57;;;39.67;;
8361;SDS011;4218;48.326;14.304;2023-07-20T04:02:22;40.33;;;38.33;;
8361;SDS011;4218;48.326;14.304;2023-07-20T04:04:48;37.80;;;36.00;;
8361;SDS011;4218;48.326;14.304;2023-07-20T04:07:13;35.10;;;33.47;;
8361;SDS011;4218;48.326;14.304;2023-07-20T04:09:38;39.13;;;37.33;;
8361;SDS011;4218;48.326;14.304;2023-07-20T04:12:03;46.37;;;44.13;;
8361;SDS011;4218;48.326;14.304;2023-07-20T04:14:29;38.33;;;36.50;;
8361;SDS011;4218;48.326;14.304;2023-07-20T04:16:54;47.70;;;45.50;;
8361;SDS011;4218;48.326;14.304;2023-07-20T04:19:19;41.73;;;39.80;;
8361;SDS011;4218;48.326;14.304;2023-07-20T04:21:44;35.37;;;33.57;;
8361;SDS011;4218;48.326;14.304;2023-07-20T04:24:09;29.30;;;27.90;;
8361;SDS011;4218;48.326;14.304;2023-07-20T04:26:35;29.93;;;28.53;;
8361;SDS011;4218;48.326;14.304;2023-07-20T04:29:00;34.17;;;32.63;;
8361;SDS011;4218;48.326;14.304;2023-07-20T04:31:26;65.77;;;62.67;;
8361;SDS011;4218;48.326;14.304;2023-07-20T04:33:52;50.77;;;48.37;;
8361;SDS011;4218;48.326;14.304;2023-07-20T04:36:17;32.90;;;31.40;;
8361;SDS011;4218;48.326;14.304;2023-07-20T04:38:44;41.13;;;39.13;;
8361;SDS011;4218;48.326;14.304;2023-07-20T04:41:10;34.67;;;33.00;;
8361;SDS011;4218;48.326;14.304;2023-07-20T04:43:37;46.00;;;43.90;;
8361;SDS011;4218;48.326;14.304;2023-07-20T04:46:05;32.77;;;31.23;;
8361;SDS011;4218;48.326;14.304;2023-07-20T04:48:31;32.17;;;30.57;;
8361;SDS011;4218;48.326;14.304;2023-07-20T04:50:56;43.80;;;41.80;;
8361;SDS011;4218;48.326;14.304;2023-07-20T04:53:21;33.33;;;31.73;;
8361;SDS011;4218;48.326;14.304;2023-07-20T04:55:47;35.77;;;34.10;;
8361;SDS011;4218;48.326;14.304;2023-07-20T04:58:15;31.60;;;30.03;;
8361;SDS011;4218;48.326;14.304;2023-07-20T05:00:40;36.20;;;34.50;;
8361;SDS011;4218;48.326;14.304;2023-07-20T05:03:06;39.40;;;37.50;;
8361;SDS011;4218;48.326;14.304;2023-07-20T05:05:31;40.27;;;38.17;;
8361;SDS011;4218;48.326;14.304;2023-07-20T05:07:57;42.63;;;40.53;;
8361;SDS011;4218;48.326;14.304;2023-07-20T05:10:22;42.73;;;40.63;;
8361;SDS011;4218;48.326;14.304;2023-07-20T05:12:48;41.90;;;39.90;;
8361;SDS011;4218;48.326;14.304;2023-07-20T05:15:13;37.10;;;35.20;;
8361;SDS011;4218;48.326;14.304;2023-07-20T05:17:38;32.93;;;31.27;;
8361;SDS011;4218;48.326;14.304;2023-07-20T05:20:04;44.83;;;42.70;;
8361;SDS011;4218;48.326;14.304;2023-07-20T05:22:30;42.20;;;40.20;;
8361;SDS011;4218;48.326;14.304;2023-07-20T05:24:55;33.13;;;31.60;;
8361;SDS011;4218;48.326;14.304;2023-07-20T05:27:20;24.17;;;23.07;;
8361;SDS011;4218;48.326;14.304;2023-07-20T05:29:46;29.37;;;28.00;;
8361;SDS011;4218;48.326;14.304;2023-07-20T05:32:12;34.80;;;33.17;;
8361;SDS011;4218;48.326;14.304;2023-07-20T05:34:37;27.60;;;26.30;;
8361;SDS011;4218;48.326;14.304;2023-07-20T05:37:10;40.67;;;38.77;;
8361;SDS011;4218;48.326;14.304;2023-07-20T05:39:36;38.60;;;36.70;;
8361;SDS011;4218;48.326;14.304;2023-07-20T05:42:03;57.20;;;54.40;;
8361;SDS011;4218;48.326;14.304;2023-07-20T05:44:28;53.13;;;50.73;;
8361;SDS011;4218;48.326;14.304;2023-07-20T05:46:54;31.43;;;29.83;;
8361;SDS011;4218;48.326;14.304;2023-07-20T05:49:19;49.30;;;47.00;;
8361;SDS011;4218;48.326;14.304;2023-07-20T05:51:44;33.40;;;31.70;;
8361;SDS011;4218;48.326;14.304;2023-07-20T05:54:10;47.53;;;45.23;;
8361;SDS011;4218;48.326;14.304;2023-07-20T05:56:35;41.97;;;39.97;;
8361;SDS011;4218;48.326;14.304;2023-07-20T05:59:00;66.17;;;63.17;;
8361;SDS011;4218;48.326;14.304;2023-07-20T06:01:26;59.30;;;56.57;;
8361;SDS011;4218;48.326;14.304;2023-07-20T06:03:53;41.93;;;40.00;;
8361;SDS011;4218;48.326;14.304;2023-07-20T06:06:18;34.57;;;32.77;;
8361;SDS011;4218;48.326;14.304;2023-07-20T06:08:43;31.03;;;29.47;;
8361;SDS011;4218;48.326;14.304;2023-07-20T06:11:09;45.30;;;43.13;;
8361;SDS011;4218;48.326;14.304;2023-07-20T06:13:35;34.47;;;32.87;;
8361;SDS011;4218;48.326;14.304;2023-07-20T06:16:00;34.53;;;32.90;;
8361;SDS011;4218;48.326;14.304;2023-07-20T06:18:25;55.33;;;52.83;;
8361;SDS011;4218;48.326;14.304;2023-07-20T06:20:51;34.73;;;33.13;;
8361;SDS011;4218;48.326;14.304;2023-07-20T06:23:17;35.93;;;34.20;;
8361;SDS011;4218;48.326;14.304;2023-07-20T06:25:42;44.23;;;42.17;;
8361;SDS011;4218;48.326;14.304;2023-07-20T06:28:07;34.67;;;32.97;;
8361;SDS011;4218;48.326;14.304;2023-07-20T06:30:33;35.50;;;33.80;;
8361;SDS011;4218;48.326;14.304;2023-07-20T06:32:59;48.83;;;46.50;;
8361;SDS011;4218;48.326;14.304;2023-07-20T06:35:26;33.97;;;32.23;;
8361;SDS011;4218;48.326;14.304;2023-07-20T06:37:51;32.50;;;30.70;;
8361;SDS011;4218;48.326;14.304;2023-07-20T06:40:16;23.17;;;22.00;;
8361;SDS011;4218;48.326;14.304;2023-07-20T06:42:42;25.47;;;24.27;;
8361;SDS011;4218;48.326;14.304;2023-07-20T06:45:07;24.67;;;23.37;;
8361;SDS011;4218;48.326;14.304;2023-07-20T06:47:33;31.93;;;30.40;;
8361;SDS011;4218;48.326;14.304;2023-07-20T06:49:58;34.17;;;32.47;;
8361;SDS011;4218;48.326;14.304;2023-07-20T06:52:24;23.90;;;22.67;;
8361;SDS011;4218;48.326;14.304;2023-07-20T06:54:49;29.37;;;28.00;;
8361;SDS011;4218;48.326;14.304;2023-07-20T06:57:14;30.20;;;28.73;;
8361;SDS011;4218;48.326;14.304;2023-07-20T06:59:39;23.73;;;22.63;;
8361;SDS011;4218;48.326;14.304;2023-07-20T07:02:05;31.43;;;29.87;;
8361;SDS011;4218;48.326;14.304;2023-07-20T07:04:31;30.90;;;29.40;;
8361;SDS011;4218;48.326;14.304;2023-07-20T07:06:56;31.63;;;30.17;;
8361;SDS011;4218;48.326;14.304;2023-07-20T07:09:21;43.70;;;41.67;;
8361;SDS011;4218;48.326;14.304;2023-07-20T07:11:46;33.83;;;32.27;;
8361;SDS011;4218;48.326;14.304;2023-07-20T07:14:12;23.53;;;22.43;;
8361;SDS011;4218;48.326;14.304;2023-07-20T07:16:37;25.00;;;23.70;;
8361;SDS011;4218;48.326;14.304;2023-07-20T07:19:03;31.43;;;29.90;;
8361;SDS011;4218;48.326;14.304;2023-07-20T07:21:30;33.77;;;32.20;;
8361;SDS011;4218;48.326;14.304;2023-07-20T07:23:55;28.80;;;27.40;;
8361;SDS011;4218;48.326;14.304;2023-07-20T07:26:22;20.67;;;19.67;;
8361;SDS011;4218;48.326;14.304;2023-07-20T07:28:47;44.00;;;41.97;;
8361;SDS011;4218;48.326;14.304;2023-07-20T07:31:13;32.03;;;30.53;;
8361;SDS011;4218;48.326;14.304;2023-07-20T07:33:38;29.73;;;28.30;;
8361;SDS011;4218;48.326;14.304;2023-07-20T07:36:04;34.70;;;33.03;;
8361;SDS011;4218;48.326;14.304;2023-07-20T07:38:29;32.73;;;31.23;;
8361;SDS011;4218;48.326;14.304;2023-07-20T07:40:54;36.47;;;34.73;;
8361;SDS011;4218;48.326;14.304;2023-07-20T07:43:19;66.67;;;63.47;;
8361;SDS011;4218;48.326;14.304;2023-07-20T07:45:45;45.40;;;43.33;;
8361;SDS011;4218;48.326;14.304;2023-07-20T07:48:10;26.23;;;24.93;;
8361;SDS011;4218;48.326;14.304;2023-07-20T07:50:39;35.23;;;33.60;;
8361;SDS011;4218;48.326;14.304;2023-07-20T07:53:07;28.90;;;27.57;;
8361;SDS011;4218;48.326;14.304;2023-07-20T07:55:33;22.90;;;21.50;;
8361;SDS011;4218;48.326;14.304;2023-07-20T07:57:59;22.40;;;21.30;;
8361;SDS011;4218;48.326;14.304;2023-07-20T08:00:24;28.73;;;27.37;;
8361;SDS011;4218;48.326;14.304;2023-07-20T08:02:49;26.10;;;24.87;;
8361;SDS011;4218;48.326;14.304;2023-07-20T08:05:15;26.63;;;25.33;;
8361;SDS011;4218;48.326;14.304;2023-07-20T08:07:41;33.40;;;31.73;;
8361;SDS011;4218;48.326;14.304;2023-07-20T08:10:06;27.97;;;26.67;;
8361;SDS011;4218;48.326;14.304;2023-07-20T08:12:32;29.97;;;28.57;;
8361;SDS011;4218;48.326;14.304;2023-07-20T08:14:57;23.93;;;22.60;;
8361;SDS011;4218;48.326;14.304;2023-07-20T08:17:22;23.57;;;22.17;;
8361;SDS011;4218;48.326;14.304;2023-07-20T08:19:48;41.00;;;39.17;;
8361;SDS011;4218;48.326;14.304;2023-07-20T08:22:13;30.37;;;28.67;;
8361;SDS011;4218;48.326;14.304;2023-07-20T08:24:41;26.20;;;25.00;;
8361;SDS011;4218;48.326;14.304;2023-07-20T08:27:06;22.60;;;21.53;;
8361;SDS011;4218;48.326;14.304;2023-07-20T08:29:32;30.87;;;29.43;;
8361;SDS011;4218;48.326;14.304;2023-07-20T08:31:57;27.43;;;26.23;;
8361;SDS011;4218;48.326;14.304;2023-07-20T08:34:23;35.80;;;34.17;;
8361;SDS011;4218;48.326;14.304;2023-07-20T08:36:48;28.20;;;26.90;;
8361;SDS011;4218;48.326;14.304;2023-07-20T08:39:13;22.23;;;21.23;;
8361;SDS011;4218;48.326;14.304;2023-07-20T08:41:38;29.37;;;28.07;;
8361;SDS011;4218;48.326;14.304;2023-07-20T08:44:04;37.13;;;35.37;;
8361;SDS011;4218;48.326;14.304;2023-07-20T08:46:30;35.30;;;33.60;;
8361;SDS011;4218;48.326;14.304;2023-07-20T08:48:56;34.77;;;33.17;;
8361;SDS011;4218;48.326;14.304;2023-07-20T08:51:21;34.60;;;33.00;;
8361;SDS011;4218;48.326;14.304;2023-07-20T08:53:47;23.97;;;22.87;;
8361;SDS011;4218;48.326;14.304;2023-07-20T08:56:16;29.73;;;28.37;;
8361;SDS011;4218;48.326;14.304;2023-07-20T08:58:41;29.37;;;27.97;;
8361;SDS011;4218;48.326;14.304;2023-07-20T09:01:08;45.80;;;43.77;;
8361;SDS011;4218;48.326;14.304;2023-07-20T09:03:33;39.67;;;37.80;;
8361;SDS011;4218;48.326;14.304;2023-07-20T09:06:00;32.73;;;31.23;;
8361;SDS011;4218;48.326;14.304;2023-07-20T09:08:25;51.07;;;48.77;;
8361;SDS011;4218;48.326;14.304;2023-07-20T09:10:50;35.53;;;33.90;;
8361;SDS011;4218;48.326;14.304;2023-07-20T09:13:16;20.50;;;19.60;;
8361;SDS011;4218;48.326;14.304;2023-07-20T09:15:48;34.27;;;32.77;;
8361;SDS011;4218;48.326;14.304;2023-07-20T09:18:24;29.93;;;28.63;;
8361;SDS011;4218;48.326;14.304;2023-07-20T09:20:50;31.23;;;29.83;;
8361;SDS011;4218;48.326;14.304;2023-07-20T09:23:15;32.90;;;31.30;;
8361;SDS011;4218;48.326;14.304;2023-07-20T09:25:43;32.23;;;30.67;;
8361;SDS011;4218;48.326;14.304;2023-07-20T09:28:10;36.13;;;34.50;;
8361;SDS011;4218;48.326;14.304;2023-07-20T09:30:36;29.20;;;27.90;;
8361;SDS011;4218;48.326;14.304;2023-07-20T09:33:01;28.40;;;26.77;;
8361;SDS011;4218;48.326;14.304;2023-07-20T09:35:26;31.60;;;30.20;;
8361;SDS011;4218;48.326;14.304;2023-07-20T09:37:59;28.13;;;26.87;;
8361;SDS011;4218;48.326;14.304;2023-07-20T09:40:25;33.90;;;32.33;;
8361;SDS011;4218;48.326;14.304;2023-07-20T09:42:51;31.73;;;30.37;;
8361;SDS011;4218;48.326;14.304;2023-07-20T09:45:18;25.43;;;24.33;;
8361;SDS011;4218;48.326;14.304;2023-07-20T09:47:43;25.17;;;24.00;;
8361;SDS011;4218;48.326;14.304;2023-07-20T09:50:08;24.37;;;23.27;;
8361;SDS011;4218;48.326;14.304;2023-07-20T09:52:39;39.50;;;37.70;;
8361;SDS011;4218;48.326;14.304;2023-07-20T09:55:14;41.23;;;39.33;;
8361;SDS011;4218;48.326;14.304;2023-07-20T09:57:39;42.37;;;40.43;;
8361;SDS011;4218;48.326;14.304;2023-07-20T10:00:05;38.73;;;37.00;;
8361;SDS011;4218;48.326;14.304;2023-07-20T10:02:42;68.77;;;65.67;;
8361;SDS011;4218;48.326;14.304;2023-07-20T10:05:08;30.73;;;29.33;;
8361;SDS011;4218;48.326;14.304;2023-07-20T10:07:35;34.90;;;33.30;;
8361;SDS011;4218;48.326;14.304;2023-07-20T10:10:02;31.67;;;30.17;;
8361;SDS011;4218;48.326;14.304;2023-07-20T10:12:28;43.53;;;41.60;;
8361;SDS011;4218;48.326;14.304;2023-07-20T10:14:59;37.30;;;35.53;;
8361;SDS011;4218;48.326;14.304;2023-07-20T10:17:29;37.57;;;35.77;;
8361;SDS011;4218;48.326;14.304;2023-07-20T10:19:55;38.87;;;36.97;;
8361;SDS011;4218;48.326;14.304;2023-07-20T10:22:25;64.90;;;61.90;;
8361;SDS011;4218;48.326;14.304;2023-07-20T10:24:50;55.87;;;53.37;;
8361;SDS011;4218;48.326;14.304;2023-07-20T10:27:19;36.93;;;35.30;;
8361;SDS011;4218;48.326;14.304;2023-07-20T10:29:44;34.83;;;33.30;;
8361;SDS011;4218;48.326;14.304;2023-07-20T10:32:10;24.60;;;23.50;;
8361;SDS011;4218;48.326;14.304;2023-07-20T10:34:36;37.37;;;35.60;;
8361;SDS011;4218;48.326;14.304;2023-07-20T10:37:01;53.13;;;50.73;;
8361;SDS011;4218;48.326;14.304;2023-07-20T10:39:27;43.90;;;41.83;;
8361;SDS011;4218;48.326;14.304;2023-07-20T10:42:28;59.33;;;56.60;;
8361;SDS011;4218;48.326;14.304;2023-07-20T10:44:44;52.80;;;50.50;;
8361;SDS011;4218;48.326;14.304;2023-07-20T10:47:13;40.70;;;38.90;;
8361;SDS011;4218;48.326;14.304;2023-07-20T10:52:22;21.80;;;20.90;;
8361;SDS011;4218;48.326;14.304;2023-07-20T10:54:47;43.27;;;41.33;;
8361;SDS011;4218;48.326;14.304;2023-07-20T10:57:30;24.90;;;23.60;;
8361;SDS011;4218;48.326;14.304;2023-07-20T11:00:11;30.07;;;28.67;;
8361;SDS011;4218;48.326;14.304;2023-07-20T11:02:47;28.00;;;26.73;;
8361;SDS011;4218;48.326;14.304;2023-07-20T11:07:57;21.07;;;20.00;;
8361;SDS011;4218;48.326;14.304;2023-07-20T11:10:22;28.37;;;27.00;;
8361;SDS011;4218;48.326;14.304;2023-07-20T11:15:44;18.73;;;17.90;;
8361;SDS011;4218;48.326;14.304;2023-07-20T11:18:13;34.33;;;32.80;;
8361;SDS011;4218;48.326;14.304;2023-07-20T11:20:38;26.88;;;25.70;;
8361;SDS011;4218;48.326;14.304;2023-07-20T11:23:03;38.45;;;36.75;;
8361;SDS011;4218;48.326;14.304;2023-07-20T11:25:38;40.78;;;38.92;;
8361;SDS011;4218;48.326;14.304;2023-07-20T11:28:09;31.63;;;30.23;;
8361;SDS011;4218;48.326;14.304;2023-07-20T11:30:36;31.30;;;29.92;;
8361;SDS011;4218;48.326;14.304;2023-07-20T11:33:01;22.80;;;21.73;;
8361;SDS011;4218;48.326;14.304;2023-07-20T11:35:26;25.65;;;24.52;;
8361;SDS011;4218;48.326;14.304;2023-07-20T11:37:51;21.10;;;20.20;;
8361;SDS011;4218;48.326;14.304;2023-07-20T11:40:16;33.20;;;31.70;;
8361;SDS011;4218;48.326;14.304;2023-07-20T11:42:42;27.52;;;26.33;;
8361;SDS011;4218;48.326;14.304;2023-07-20T11:45:08;21.23;;;20.30;;
8361;SDS011;4218;48.326;14.304;2023-07-20T11:47:33;26.17;;;25.08;;
8361;SDS011;4218;48.326;14.304;2023-07-20T11:50:02;29.23;;;27.80;;
8361;SDS011;4218;48.326;14.304;2023-07-20T11:52:27;24.50;;;23.40;;
8361;SDS011;4218;48.326;14.304;2023-07-20T11:54:53;44.17;;;42.15;;
8361;SDS011;4218;48.326;14.304;2023-07-20T11:57:21;29.83;;;28.50;;
8361;SDS011;4218;48.326;14.304;2023-07-20T11:59:53;32.72;;;31.27;;
8361;SDS011;4218;48.326;14.304;2023-07-20T12:02:22;38.90;;;37.22;;
8361;SDS011;4218;48.326;14.304;2023-07-20T12:04:47;44.42;;;42.42;;
8361;SDS011;4218;48.326;14.304;2023-07-20T12:07:12;42.92;;;41.05;;
8361;SDS011;4218;48.326;14.304;2023-07-20T12:09:38;62.70;;;59.95;;
8361;SDS011;4218;48.326;14.304;2023-07-20T12:12:09;29.98;;;28.63;;
8361;SDS011;4218;48.326;14.304;2023-07-20T12:14:35;24.52;;;23.48;;
8361;SDS011;4218;48.326;14.304;2023-07-20T12:17:00;41.50;;;39.65;;
8361;SDS011;4218;48.326;14.304;2023-07-20T12:19:25;47.50;;;45.38;;
8361;SDS011;4218;48.326;14.304;2023-07-20T12:21:51;65.13;;;62.28;;
8361;SDS011;4218;48.326;14.304;2023-07-20T12:24:22;27.33;;;26.02;;
8361;SDS011;4218;48.326;14.304;2023-07-20T12:26:47;38.25;;;36.55;;
8361;SDS011;4218;48.326;14.304;2023-07-20T12:29:12;28.85;;;27.58;;
8361;SDS011;4218;48.326;14.304;2023-07-20T12:31:38;38.05;;;36.38;;
8361;SDS011;4218;48.326;14.304;2023-07-20T12:34:03;41.40;;;39.58;;
8361;SDS011;4218;48.326;14.304;2023-07-20T12:36:28;41.50;;;39.63;;
8361;SDS011;4218;48.326;14.304;2023-07-20T12:38:54;38.10;;;36.47;;
8361;SDS011;4218;48.326;14.304;2023-07-20T12:41:19;60.20;;;57.53;;
8361;SDS011;4218;48.326;14.304;2023-07-20T12:43:45;45.08;;;43.10;;
8361;SDS011;4218;48.326;14.304;2023-07-20T12:46:10;30.83;;;29.48;;
8361;SDS011;4218;48.326;14.304;2023-07-20T12:48:39;58.55;;;55.97;;
8361;SDS011;4218;48.326;14.304;2023-07-20T12:51:07;53.90;;;51.50;;
8361;SDS011;4218;48.326;14.304;2023-07-20T12:53:32;43.05;;;40.92;;
8361;SDS011;4218;48.326;14.304;2023-07-20T12:55:58;33.85;;;32.30;;
8361;SDS011;4218;48.326;14.304;2023-07-20T12:58:24;39.88;;;38.05;;
8361;SDS011;4218;48.326;14.304;2023-07-20T13:00:49;36.03;;;34.42;;
8361;SDS011;4218;48.326;14.304;2023-07-20T13:03:14;61.88;;;59.13;;
8361;SDS011;4218;48.326;14.304;2023-07-20T13:05:41;36.30;;;34.65;;
8361;SDS011;4218;48.326;14.304;2023-07-20T13:08:06;33.30;;;31.85;;
8361;SDS011;4218;48.326;14.304;2023-07-20T13:10:32;36.63;;;34.97;;
8361;SDS011;4218;48.326;14.304;2023-07-20T13:12:57;26.25;;;25.10;;
8361;SDS011;4218;48.326;14.304;2023-07-20T13:15:24;32.67;;;31.27;;
8361;SDS011;4218;48.326;14.304;2023-07-20T13:17:49;47.42;;;45.38;;
8361;SDS011;4218;48.326;14.304;2023-07-20T13:20:15;63.97;;;61.15;;
8361;SDS011;4218;48.326;14.304;2023-07-20T13:22:41;62.40;;;59.65;;
8361;SDS011;4218;48.326;14.304;2023-07-20T13:25:06;29.17;;;27.88;;
8361;SDS011;4218;48.326;14.304;2023-07-20T13:27:32;37.70;;;36.05;;
8361;SDS011;4218;48.326;14.304;2023-07-20T13:30:00;38.05;;;36.30;;
8361;SDS011;4218;48.326;14.304;2023-07-20T13:32:26;35.45;;;33.88;;
8361;SDS011;4218;48.326;14.304;2023-07-20T13:34:52;36.78;;;35.08;;
8361;SDS011;4218;48.326;14.304;2023-07-20T13:37:17;29.63;;;28.25;;
8361;SDS011;4218;48.326;14.304;2023-07-20T13:39:42;25.55;;;24.35;;
8361;SDS011;4218;48.326;14.304;2023-07-20T13:42:11;39.63;;;37.90;;
8361;SDS011;4218;48.326;14.304;2023-07-20T13:44:37;44.70;;;42.63;;
8361;SDS011;4218;48.326;14.304;2023-07-20T13:47:03;33.05;;;31.65;;
8361;SDS011;4218;48.326;14.304;2023-07-20T13:49:30;36.47;;;34.85;;
8361;SDS011;4218;48.326;14.304;2023-07-20T13:51:56;34.85;;;33.35;;
8361;SDS011;4218;48.326;14.304;2023-07-20T13:54:22;42.63;;;40.75;;
8361;SDS011;4218;48.326;14.304;2023-07-20T13:56:48;37.22;;;35.60;;
8361;SDS011;4218;48.326;14.304;2023-07-20T13:59:13;51.72;;;49.45;;
8361;SDS011;4218;48.326;14.304;2023-07-20T14:01:38;24.10;;;23.00;;
8361;SDS011;4218;48.326;14.304;2023-07-20T14:04:04;27.83;;;26.60;;
8361;SDS011;4218;48.326;14.304;2023-07-20T14:06:30;30.17;;;28.88;;
8361;SDS011;4218;48.326;14.304;2023-07-20T14:08:55;26.92;;;25.77;;
8361;SDS011;4218;48.326;14.304;2023-07-20T14:11:21;28.25;;;27.02;;
8361;SDS011;4218;48.326;14.304;2023-07-20T14:13:47;45.15;;;43.08;;
8361;SDS011;4218;48.326;14.304;2023-07-20T14:16:12;52.55;;;50.28;;
8361;SDS011;4218;48.326;14.304;2023-07-20T14:18:37;41.30;;;39.55;;
8361;SDS011;4218;48.326;14.304;2023-07-20T14:21:02;45.72;;;43.72;;
8361;SDS011;4218;48.326;14.304;2023-07-20T14:23:29;26.80;;;25.67;;
8361;SDS011;4218;48.326;14.304;2023-07-20T14:25:54;18.55;;;17.75;;
8361;SDS011;4218;48.326;14.304;2023-07-20T14:28:20;24.50;;;23.40;;
8361;SDS011;4218;48.326;14.304;2023-07-20T14:30:45;40.33;;;38.50;;
8361;SDS011;4218;48.326;14.304;2023-07-20T14:33:10;53.72;;;51.35;;
8361;SDS011;4218;48.326;14.304;2023-07-20T14:35:36;31.95;;;30.50;;
8361;SDS011;4218;48.326;14.304;2023-07-20T14:38:01;54.00;;;51.63;;
8361;SDS011;4218;48.326;14.304;2023-07-20T14:40:27;31.40;;;30.00;;
8361;SDS011;4218;48.326;14.304;2023-07-20T14:42:55;50.10;;;47.92;;
8361;SDS011;4218;48.326;14.304;2023-07-20T14:45:20;45.83;;;43.75;;